Time;durP1;ratioP1;P1;durP2;ratioP2;P2;SDS_P1;SDS_P2;PMS_P1;PMS_P2;Temp;Humidity;BMP_temperature;BMP_pressure;BME280_temperature;BME280_humidity;BME280_pressure;Samples;Min_cycle;Max_cycle;Signal;HPM_P1;HPM_P2
2023/06/06 00:01:54;;;;;;;2.45;2.13;;;;;;;;;;5014553;28;20048;-76
2023/06/06 00:04:19;;;;;;;3.58;2.00;;;;;;;;;;5018533;28;20123;-75
2023/06/06 00:06:45;;;;;;;2.65;2.30;;;;;;;;;;5023667;28;20512;-76
2023/06/06 00:09:11;;;;;;;2.25;1.95;;;;;;;;;;5021693;28;20119;-75
2023/06/06 00:11:39;;;;;;;2.95;2.15;;;;;;;;;;5021674;28;20798;-76
2023/06/06 00:14:08;;;;;;;3.63;2.05;;;;;;;;;;5018882;28;20100;-75
2023/06/06 00:16:34;;;;;;;2.60;2.10;;;;;;;;;;4978522;28;20165;-77
2023/06/06 00:19:00;;;;;;;3.13;1.90;;;;;;;;;;5020285;28;20160;-77
2023/06/06 00:21:27;;;;;;;2.60;2.00;;;;;;;;;;5024414;28;20041;-77
2023/06/06 00:23:54;;;;;;;4.47;1.90;;;;;;;;;;5021461;28;20037;-77
2023/06/06 00:26:20;;;;;;;2.30;2.10;;;;;;;;;;5012640;28;20130;-76
2023/06/06 00:28:46;;;;;;;2.20;1.80;;;;;;;;;;5010854;28;20519;-76
2023/06/06 00:31:11;;;;;;;3.30;2.10;;;;;;;;;;5017539;28;20052;-76
2023/06/06 00:33:37;;;;;;;1.77;1.67;;;;;;;;;;5004337;28;20456;-76
2023/06/06 00:36:02;;;;;;;3.05;2.40;;;;;;;;;;5004410;28;20051;-76
2023/06/06 00:38:28;;;;;;;2.42;2.20;;;;;;;;;;5004709;28;20092;-77
2023/06/06 00:40:53;;;;;;;3.95;2.20;;;;;;;;;;5004552;28;20301;-76
2023/06/06 00:43:19;;;;;;;3.28;2.13;;;;;;;;;;5011208;28;20048;-77
2023/06/06 00:45:44;;;;;;;2.47;1.77;;;;;;;;;;5026071;28;20079;-76
2023/06/06 00:48:10;;;;;;;1.90;1.80;;;;;;;;;;4998485;28;20060;-76
2023/06/06 00:50:36;;;;;;;2.00;1.77;;;;;;;;;;5026982;28;20566;-76
2023/06/06 00:53:03;;;;;;;2.47;2.10;;;;;;;;;;5026818;28;20090;-76
2023/06/06 00:55:29;;;;;;;3.28;1.80;;;;;;;;;;5027428;28;20521;-76
2023/06/06 00:57:55;;;;;;;2.42;1.83;;;;;;;;;;5017601;28;20128;-77
2023/06/06 01:00:21;;;;;;;2.88;2.10;;;;;;;;;;5024870;28;20040;-76
2023/06/06 01:02:48;;;;;;;5.93;2.50;;;;;;;;;;5027059;28;20037;-76
2023/06/06 01:05:15;;;;;;;2.78;2.25;;;;;;;;;;5025347;28;20053;-77
2023/06/06 01:07:43;;;;;;;3.33;2.10;;;;;;;;;;5023682;28;20596;-76
2023/06/06 01:10:09;;;;;;;2.13;1.52;;;;;;;;;;5023932;28;20049;-75
2023/06/06 01:12:43;;;;;;;2.50;2.10;;;;;;;;;;4986496;28;20490;-76
2023/06/06 01:15:17;;;;;;;1.88;1.77;;;;;;;;;;5017641;28;20528;-76
2023/06/06 01:17:46;;;;;;;3.92;2.45;;;;;;;;;;5007387;28;20491;-76
2023/06/06 01:20:13;;;;;;;5.25;2.20;;;;;;;;;;5007509;28;20033;-76
2023/06/06 01:22:39;;;;;;;2.60;2.20;;;;;;;;;;5019294;28;20039;-75
2023/06/06 01:25:06;;;;;;;3.25;2.08;;;;;;;;;;4981825;28;20045;-75
2023/06/06 01:27:33;;;;;;;2.40;2.00;;;;;;;;;;5025308;28;20041;-75
2023/06/06 01:30:02;;;;;;;3.45;2.45;;;;;;;;;;5007250;28;20479;-75
2023/06/06 01:32:35;;;;;;;2.10;1.77;;;;;;;;;;5023883;28;20159;-75
2023/06/06 01:35:25;;;;;;;2.13;1.92;;;;;;;;;;4981568;28;20513;-75
2023/06/06 01:37:55;;;;;;;3.13;1.70;;;;;;;;;;4975272;28;20747;-76
2023/06/06 01:40:21;;;;;;;3.97;2.60;;;;;;;;;;5015959;28;20029;-76
2023/06/06 01:42:48;;;;;;;2.30;1.90;;;;;;;;;;5024833;28;20044;-76
2023/06/06 01:45:20;;;;;;;3.78;2.15;;;;;;;;;;5025952;28;20136;-76
2023/06/06 01:47:46;;;;;;;2.60;2.33;;;;;;;;;;5025471;28;20041;-75
2023/06/06 01:50:12;;;;;;;3.45;2.20;;;;;;;;;;4992286;28;20034;-75
2023/06/06 01:52:38;;;;;;;3.03;2.30;;;;;;;;;;5011696;28;20040;-75
2023/06/06 01:55:05;;;;;;;3.00;2.53;;;;;;;;;;5026263;28;20025;-76
2023/06/06 01:57:31;;;;;;;2.85;2.03;;;;;;;;;;5026902;28;20084;-75
2023/06/06 01:59:57;;;;;;;1.60;1.50;;;;;;;;;;5023371;28;20056;-75
2023/06/06 02:02:23;;;;;;;1.90;1.63;;;;;;;;;;5018857;28;20544;-76
2023/06/06 02:04:49;;;;;;;2.83;2.00;;;;;;;;;;5026072;28;20045;-75
2023/06/06 02:07:16;;;;;;;2.95;2.22;;;;;;;;;;5026453;28;20060;-76
2023/06/06 02:09:42;;;;;;;4.22;2.38;;;;;;;;;;5017751;28;20088;-75
2023/06/06 02:12:08;;;;;;;2.97;2.08;;;;;;;;;;5024710;28;20463;-76
2023/06/06 02:14:34;;;;;;;2.40;2.10;;;;;;;;;;5014437;28;20045;-76
2023/06/06 02:17:00;;;;;;;2.97;2.58;;;;;;;;;;5012691;28;20045;-76
2023/06/06 02:19:26;;;;;;;2.40;2.10;;;;;;;;;;5011907;28;20064;-76
2023/06/06 02:21:51;;;;;;;2.83;2.20;;;;;;;;;;5026921;28;20067;-76
2023/06/06 02:24:17;;;;;;;2.72;2.00;;;;;;;;;;5024610;28;20061;-76
2023/06/06 02:26:42;;;;;;;3.35;1.95;;;;;;;;;;5011887;28;20034;-75
2023/06/06 02:29:08;;;;;;;2.42;1.95;;;;;;;;;;5004349;28;20540;-76
2023/06/06 02:31:36;;;;;;;1.63;1.42;;;;;;;;;;4998080;28;20098;-75
2023/06/06 02:34:02;;;;;;;3.10;2.17;;;;;;;;;;5000490;28;20131;-75
2023/06/06 02:36:29;;;;;;;1.88;1.75;;;;;;;;;;5024940;28;20135;-76
2023/06/06 02:38:55;;;;;;;3.45;2.60;;;;;;;;;;5025210;28;20055;-76
2023/06/06 02:41:20;;;;;;;3.42;1.90;;;;;;;;;;5021090;28;20417;-76
2023/06/06 02:43:46;;;;;;;1.98;1.45;;;;;;;;;;5023453;28;20080;-76
2023/06/06 02:46:11;;;;;;;2.75;2.33;;;;;;;;;;5015471;28;20157;-75
2023/06/06 02:48:36;;;;;;;3.35;2.10;;;;;;;;;;5022995;28;20051;-75
2023/06/06 02:51:03;;;;;;;2.20;2.00;;;;;;;;;;5024657;28;20033;-76
2023/06/06 02:53:31;;;;;;;2.47;2.00;;;;;;;;;;5022700;28;20037;-76
2023/06/06 02:55:57;;;;;;;3.00;1.77;;;;;;;;;;5016369;28;20059;-76
2023/06/06 02:58:29;;;;;;;2.72;2.15;;;;;;;;;;5021973;28;20052;-75
2023/06/06 03:00:58;;;;;;;4.72;2.30;;;;;;;;;;4983212;28;20103;-75
2023/06/06 03:03:24;;;;;;;4.28;2.30;;;;;;;;;;5006106;28;20037;-75
2023/06/06 03:05:51;;;;;;;2.35;1.90;;;;;;;;;;5006049;28;20106;-76
2023/06/06 03:08:20;;;;;;;2.58;2.00;;;;;;;;;;5017531;28;20037;-75
2023/06/06 03:10:46;;;;;;;2.67;1.70;;;;;;;;;;5024967;28;20198;-75
2023/06/06 03:13:12;;;;;;;4.03;2.15;;;;;;;;;;5004706;28;20041;-76
2023/06/06 03:15:37;;;;;;;1.90;1.70;;;;;;;;;;5019067;28;20451;-75
2023/06/06 03:18:03;;;;;;;1.75;1.65;;;;;;;;;;5020073;28;20033;-75
2023/06/06 03:20:30;;;;;;;2.72;2.05;;;;;;;;;;5011492;28;20047;-75
2023/06/06 03:22:56;;;;;;;2.55;1.88;;;;;;;;;;5022476;28;20053;-75
2023/06/06 03:25:25;;;;;;;2.55;2.10;;;;;;;;;;5022723;28;20045;-75
2023/06/06 03:27:50;;;;;;;3.38;2.40;;;;;;;;;;5012866;28;20052;-75
2023/06/06 03:30:16;;;;;;;2.47;1.95;;;;;;;;;;5019992;28;20045;-75
2023/06/06 03:32:42;;;;;;;1.98;1.70;;;;;;;;;;5020875;28;20049;-75
2023/06/06 03:35:08;;;;;;;2.60;2.13;;;;;;;;;;5014738;28;20682;-75
2023/06/06 03:37:33;;;;;;;2.58;2.10;;;;;;;;;;5015044;28;20425;-75
2023/06/06 03:39:59;;;;;;;1.50;1.40;;;;;;;;;;5001990;28;20416;-76
2023/06/06 03:42:24;;;;;;;3.50;2.33;;;;;;;;;;5017664;28;20049;-75
2023/06/06 03:44:50;;;;;;;2.67;1.80;;;;;;;;;;5001521;28;20050;-76
2023/06/06 03:47:15;;;;;;;3.65;2.38;;;;;;;;;;5013813;28;20474;-76
2023/06/06 03:49:41;;;;;;;2.80;2.45;;;;;;;;;;5023683;28;20545;-75
2023/06/06 03:52:07;;;;;;;2.42;2.22;;;;;;;;;;5023287;28;20033;-76
2023/06/06 03:54:36;;;;;;;3.85;2.13;;;;;;;;;;5013452;28;20029;-75
2023/06/06 03:57:02;;;;;;;5.15;1.90;;;;;;;;;;5023219;28;20029;-76
2023/06/06 03:59:27;;;;;;;2.00;1.80;;;;;;;;;;5013619;28;20048;-75
2023/06/06 04:01:53;;;;;;;2.53;1.92;;;;;;;;;;5023877;28;20128;-75
2023/06/06 04:04:19;;;;;;;1.80;1.67;;;;;;;;;;5023975;28;20032;-75
2023/06/06 04:06:44;;;;;;;4.35;2.15;;;;;;;;;;5023379;28;20525;-75
2023/06/06 04:09:10;;;;;;;2.97;2.10;;;;;;;;;;5010213;28;20025;-75
2023/06/06 04:11:36;;;;;;;1.67;1.48;;;;;;;;;;5022493;28;20037;-75
2023/06/06 04:14:02;;;;;;;1.65;1.55;;;;;;;;;;5023539;28;20112;-75
2023/06/06 04:16:27;;;;;;;4.45;2.30;;;;;;;;;;5024181;28;20730;-75
2023/06/06 04:18:52;;;;;;;2.75;2.22;;;;;;;;;;5025074;28;20029;-75
2023/06/06 04:21:19;;;;;;;3.88;2.47;;;;;;;;;;5016632;28;20507;-74
2023/06/06 04:23:45;;;;;;;3.03;2.00;;;;;;;;;;5012277;28;20041;-74
2023/06/06 04:26:22;;;;;;;5.57;2.42;;;;;;;;;;5000177;28;20035;-75
2023/06/06 04:28:48;;;;;;;2.85;2.63;;;;;;;;;;5006829;28;20044;-74
2023/06/06 04:31:14;;;;;;;5.10;3.05;;;;;;;;;;5017172;28;20055;-75
2023/06/06 04:33:39;;;;;;;5.32;2.78;;;;;;;;;;5027573;28;20048;-74
2023/06/06 04:36:05;;;;;;;3.47;2.35;;;;;;;;;;5013569;28;20083;-74
2023/06/06 04:38:31;;;;;;;4.97;2.90;;;;;;;;;;5024623;28;20456;-75
2023/06/06 04:41:01;;;;;;;4.30;2.90;;;;;;;;;;5024694;28;20076;-74
2023/06/06 04:43:27;;;;;;;4.75;2.58;;;;;;;;;;4994173;28;20113;-74
2023/06/06 04:45:58;;;;;;;4.70;2.75;;;;;;;;;;5006415;28;20604;-75
2023/06/06 04:48:25;;;;;;;5.88;3.08;;;;;;;;;;5011835;28;20048;-75
2023/06/06 04:50:52;;;;;;;5.00;2.97;;;;;;;;;;5023869;28;20128;-74
2023/06/06 04:53:17;;;;;;;4.50;2.60;;;;;;;;;;5025424;28;20036;-75
2023/06/06 04:55:43;;;;;;;6.70;2.70;;;;;;;;;;5025837;28;20094;-74
2023/06/06 04:58:09;;;;;;;3.85;2.67;;;;;;;;;;5008674;28;20048;-75
2023/06/06 05:00:35;;;;;;;5.35;3.08;;;;;;;;;;5010573;28;20758;-74
2023/06/06 05:03:00;;;;;;;4.20;3.08;;;;;;;;;;4993035;28;20180;-74
2023/06/06 05:05:26;;;;;;;3.03;2.72;;;;;;;;;;5026942;28;20041;-73
2023/06/06 05:07:51;;;;;;;2.58;2.15;;;;;;;;;;5025689;28;20544;-73
2023/06/06 05:10:17;;;;;;;9.15;3.22;;;;;;;;;;5022427;28;20045;-73
2023/06/06 05:12:42;;;;;;;6.05;2.22;;;;;;;;;;5013948;28;20090;-73
2023/06/06 05:15:08;;;;;;;4.60;2.80;;;;;;;;;;5026586;28;20033;-73
2023/06/06 05:17:33;;;;;;;7.82;3.03;;;;;;;;;;5023150;28;20644;-76
2023/06/06 05:19:59;;;;;;;3.38;2.95;;;;;;;;;;5028842;28;20036;-75
2023/06/06 05:22:24;;;;;;;3.28;2.80;;;;;;;;;;5026919;28;20048;-75
2023/06/06 05:24:50;;;;;;;4.28;3.28;;;;;;;;;;5021781;28;20037;-76
2023/06/06 05:27:15;;;;;;;3.90;2.67;;;;;;;;;;5016662;28;20040;-76
2023/06/06 05:29:41;;;;;;;5.85;3.00;;;;;;;;;;5022624;28;20033;-75
2023/06/06 05:32:08;;;;;;;3.58;2.88;;;;;;;;;;5014348;28;20029;-76
2023/06/06 05:34:34;;;;;;;4.18;3.15;;;;;;;;;;5018666;28;20037;-75
2023/06/06 05:37:00;;;;;;;5.95;2.95;;;;;;;;;;4997328;28;20032;-75
2023/06/06 05:39:26;;;;;;;4.32;2.65;;;;;;;;;;5024070;28;20053;-76
2023/06/06 05:41:54;;;;;;;4.18;3.05;;;;;;;;;;5024584;28;20068;-76
2023/06/06 05:44:21;;;;;;;6.03;3.20;;;;;;;;;;4993768;28;20093;-75
2023/06/06 05:46:48;;;;;;;4.88;3.70;;;;;;;;;;4966892;28;20384;-75
2023/06/06 05:49:14;;;;;;;4.60;3.00;;;;;;;;;;5008878;28;20069;-76
2023/06/06 05:51:39;;;;;;;7.47;3.00;;;;;;;;;;5015425;28;20057;-75
2023/06/06 05:54:06;;;;;;;5.28;3.20;;;;;;;;;;5025352;28;20047;-75
2023/06/06 05:56:31;;;;;;;8.25;3.30;;;;;;;;;;5025131;28;20037;-76
2023/06/06 05:58:57;;;;;;;7.10;3.38;;;;;;;;;;5016332;28;20166;-76
2023/06/06 06:01:24;;;;;;;8.68;3.58;;;;;;;;;;5025299;28;20041;-76
2023/06/06 06:03:52;;;;;;;7.60;3.90;;;;;;;;;;5009763;28;20128;-75
2023/06/06 06:06:19;;;;;;;8.20;3.17;;;;;;;;;;5025900;28;20029;-75
2023/06/06 06:08:48;;;;;;;9.15;3.92;;;;;;;;;;5000820;28;20093;-76
2023/06/06 06:11:13;;;;;;;3.65;3.08;;;;;;;;;;5003430;28;20080;-75
2023/06/06 06:13:39;;;;;;;8.80;3.35;;;;;;;;;;4986865;28;20037;-75
2023/06/06 06:16:04;;;;;;;9.27;3.40;;;;;;;;;;5005468;28;20596;-76
2023/06/06 06:18:30;;;;;;;7.75;3.50;;;;;;;;;;5005461;28;20084;-76
2023/06/06 06:20:55;;;;;;;4.78;3.42;;;;;;;;;;5007104;28;20037;-76
2023/06/06 06:23:20;;;;;;;5.45;3.35;;;;;;;;;;5006616;28;20041;-76
2023/06/06 06:25:46;;;;;;;4.30;3.08;;;;;;;;;;5006132;28;20053;-75
2023/06/06 06:28:19;;;;;;;6.03;3.55;;;;;;;;;;4985699;28;20429;-76
2023/06/06 06:30:45;;;;;;;4.80;3.20;;;;;;;;;;5001179;28;20739;-76
2023/06/06 06:33:11;;;;;;;5.03;3.45;;;;;;;;;;5005349;28;20147;-76
2023/06/06 06:35:36;;;;;;;6.45;3.20;;;;;;;;;;5005556;28;20037;-76
2023/06/06 06:38:03;;;;;;;3.97;3.40;;;;;;;;;;5005796;28;20116;-77
2023/06/06 06:40:28;;;;;;;5.32;3.35;;;;;;;;;;5005969;28;20787;-77
2023/06/06 06:42:54;;;;;;;4.15;3.40;;;;;;;;;;5015500;28;20067;-75
2023/06/06 06:45:21;;;;;;;4.47;3.70;;;;;;;;;;5028101;28;20044;-76
2023/06/06 06:47:46;;;;;;;4.75;3.60;;;;;;;;;;5024434;28;20489;-76
2023/06/06 06:50:11;;;;;;;4.10;3.70;;;;;;;;;;5007528;28;20045;-75
2023/06/06 06:52:37;;;;;;;4.90;3.38;;;;;;;;;;5022277;28;20061;-76
2023/06/06 06:55:04;;;;;;;4.95;3.30;;;;;;;;;;5001667;28;20033;-76
2023/06/06 06:57:30;;;;;;;5.00;3.40;;;;;;;;;;5012794;28;20061;-76
2023/06/06 06:59:56;;;;;;;7.18;3.35;;;;;;;;;;5024256;28;20052;-75
2023/06/06 07:02:26;;;;;;;4.55;3.53;;;;;;;;;;5024080;28;20036;-76
2023/06/06 07:04:59;;;;;;;6.93;3.63;;;;;;;;;;5025208;28;20520;-75
2023/06/06 07:07:25;;;;;;;7.22;3.70;;;;;;;;;;5019255;28;20128;-76
2023/06/06 07:09:51;;;;;;;4.80;3.70;;;;;;;;;;5013498;28;20095;-76
2023/06/06 07:12:16;;;;;;;7.38;3.95;;;;;;;;;;5022330;28;20033;-76
2023/06/06 07:14:42;;;;;;;5.70;3.65;;;;;;;;;;5015555;28;20503;-76
2023/06/06 07:17:07;;;;;;;4.85;3.50;;;;;;;;;;5016714;28;20052;-77
2023/06/06 07:19:36;;;;;;;4.90;3.53;;;;;;;;;;5023659;28;20029;-77
2023/06/06 07:22:03;;;;;;;6.03;3.60;;;;;;;;;;5017028;28;20037;-77
2023/06/06 07:24:28;;;;;;;4.70;2.58;;;;;;;;;;5022644;28;20420;-77
2023/06/06 07:26:54;;;;;;;5.80;3.47;;;;;;;;;;5020875;28;20740;-76
2023/06/06 07:29:21;;;;;;;5.50;3.58;;;;;;;;;;5022679;28;20067;-77
2023/06/06 07:31:47;;;;;;;8.48;4.35;;;;;;;;;;5021165;28;20043;-77
2023/06/06 07:34:12;;;;;;;5.20;3.42;;;;;;;;;;4995685;28;20033;-76
2023/06/06 07:36:38;;;;;;;4.00;3.60;;;;;;;;;;5010485;28;20044;-77
2023/06/06 07:39:03;;;;;;;4.82;3.50;;;;;;;;;;5021302;28;20117;-76
2023/06/06 07:41:33;;;;;;;4.22;3.60;;;;;;;;;;5024522;28;20052;-76
2023/06/06 07:43:58;;;;;;;3.60;3.10;;;;;;;;;;5012108;28;20045;-76
2023/06/06 07:46:24;;;;;;;3.85;3.00;;;;;;;;;;5000611;28;20048;-76
2023/06/06 07:48:50;;;;;;;3.33;2.60;;;;;;;;;;5014382;28;20041;-76
2023/06/06 07:51:16;;;;;;;3.65;3.10;;;;;;;;;;5001195;28;20033;-77
2023/06/06 07:53:43;;;;;;;5.60;3.17;;;;;;;;;;5002772;28;20049;-76
2023/06/06 07:56:09;;;;;;;4.28;2.78;;;;;;;;;;5000369;28;20169;-77
2023/06/06 07:58:43;;;;;;;3.40;2.75;;;;;;;;;;5013867;28;20493;-77
2023/06/06 08:01:10;;;;;;;4.15;3.05;;;;;;;;;;5009609;28;20116;-77
2023/06/06 08:03:36;;;;;;;3.47;2.78;;;;;;;;;;5011374;28;20025;-76
2023/06/06 08:06:02;;;;;;;6.10;2.92;;;;;;;;;;5020864;28;20178;-77
2023/06/06 08:08:27;;;;;;;4.90;3.15;;;;;;;;;;5020084;28;21120;-77
2023/06/06 08:10:53;;;;;;;3.97;2.60;;;;;;;;;;5020275;28;20535;-77
2023/06/06 08:13:21;;;;;;;4.13;2.40;;;;;;;;;;5022846;28;20041;-77
2023/06/06 08:15:47;;;;;;;2.95;2.58;;;;;;;;;;5021216;28;20053;-77
2023/06/06 08:18:16;;;;;;;7.43;3.00;;;;;;;;;;4984240;28;20506;-76
2023/06/06 08:20:41;;;;;;;3.67;2.95;;;;;;;;;;5008492;28;20469;-76
2023/06/06 08:23:07;;;;;;;4.40;2.45;;;;;;;;;;5022076;28;20029;-77
2023/06/06 08:25:33;;;;;;;3.85;2.58;;;;;;;;;;5023782;28;20029;-76
2023/06/06 08:27:58;;;;;;;4.63;2.90;;;;;;;;;;5006282;28;20033;-76
2023/06/06 08:30:24;;;;;;;4.47;2.50;;;;;;;;;;5023301;28;20095;-76
2023/06/06 08:32:50;;;;;;;4.25;2.58;;;;;;;;;;5006906;28;20414;-76
2023/06/06 08:35:16;;;;;;;2.90;2.50;;;;;;;;;;5024074;28;20662;-76
2023/06/06 08:37:41;;;;;;;3.50;2.53;;;;;;;;;;5012613;28;20030;-76
2023/06/06 08:40:08;;;;;;;4.70;2.90;;;;;;;;;;5004503;28;20033;-75
2023/06/06 08:42:40;;;;;;;2.83;2.10;;;;;;;;;;5021419;28;20449;-76
2023/06/06 08:45:07;;;;;;;3.67;2.78;;;;;;;;;;5009503;28;20045;-76
2023/06/06 08:47:34;;;;;;;2.67;2.47;;;;;;;;;;5014321;28;20498;-76
2023/06/06 08:50:04;;;;;;;3.70;2.85;;;;;;;;;;5018947;28;20091;-76
2023/06/06 08:52:36;;;;;;;3.28;2.60;;;;;;;;;;5004032;28;20057;-76
2023/06/06 08:55:02;;;;;;;4.55;2.95;;;;;;;;;;5023395;28;20064;-76
2023/06/06 08:57:28;;;;;;;3.45;2.55;;;;;;;;;;5022342;28;20111;-76
2023/06/06 08:59:54;;;;;;;2.92;2.63;;;;;;;;;;5014117;28;20108;-76
2023/06/06 09:02:21;;;;;;;5.03;2.80;;;;;;;;;;5022858;28;20098;-76
2023/06/06 09:04:47;;;;;;;3.58;3.05;;;;;;;;;;5023099;28;20037;-77
2023/06/06 09:07:14;;;;;;;4.28;3.50;;;;;;;;;;5024431;28;20532;-76
2023/06/06 09:09:45;;;;;;;5.50;3.60;;;;;;;;;;5012474;28;20059;-76
2023/06/06 09:12:11;;;;;;;8.55;4.13;;;;;;;;;;4999210;28;20037;-76
2023/06/06 09:14:36;;;;;;;4.97;3.55;;;;;;;;;;5017029;28;20040;-76
2023/06/06 09:17:02;;;;;;;6.63;3.45;;;;;;;;;;5026065;28;20048;-76
2023/06/06 09:19:29;;;;;;;5.85;3.42;;;;;;;;;;5027901;28;20080;-77
2023/06/06 09:21:57;;;;;;;4.88;3.75;;;;;;;;;;5029098;28;20060;-76
2023/06/06 09:24:23;;;;;;;6.10;3.45;;;;;;;;;;5014363;28;20036;-76
2023/06/06 09:26:48;;;;;;;5.90;3.40;;;;;;;;;;5013403;28;20034;-76
2023/06/06 09:29:14;;;;;;;6.97;3.45;;;;;;;;;;5020716;28;20128;-77
2023/06/06 09:31:40;;;;;;;8.52;3.60;;;;;;;;;;5010644;28;20049;-77
2023/06/06 09:34:10;;;;;;;4.38;3.20;;;;;;;;;;5019572;28;20040;-76
2023/06/06 09:36:41;;;;;;;4.65;3.05;;;;;;;;;;5022845;28;20045;-77
2023/06/06 09:39:14;;;;;;;4.65;2.85;;;;;;;;;;5003916;28;20042;-76
2023/06/06 09:41:40;;;;;;;4.35;3.00;;;;;;;;;;5031259;28;20574;-76
2023/06/06 09:44:19;;;;;;;4.10;3.00;;;;;;;;;;5029499;28;20045;-76
2023/06/06 09:46:45;;;;;;;3.35;2.97;;;;;;;;;;5030742;28;20075;-76
2023/06/06 09:49:12;;;;;;;5.53;3.00;;;;;;;;;;5032376;28;20087;-76
2023/06/06 09:51:44;;;;;;;4.55;2.95;;;;;;;;;;4977253;28;20038;-76
2023/06/06 09:54:10;;;;;;;4.30;2.80;;;;;;;;;;5029132;28;20128;-76
2023/06/06 09:56:40;;;;;;;4.45;3.30;;;;;;;;;;5011252;28;20037;-76
2023/06/06 09:59:07;;;;;;;4.10;3.58;;;;;;;;;;5027636;28;20413;-76
2023/06/06 10:01:35;;;;;;;5.20;3.20;;;;;;;;;;5033840;28;20056;-76
2023/06/06 10:04:01;;;;;;;4.63;3.13;;;;;;;;;;5016581;28;20044;-76
2023/06/06 10:06:33;;;;;;;4.88;3.38;;;;;;;;;;5008235;28;20422;-75
2023/06/06 10:08:59;;;;;;;3.83;3.00;;;;;;;;;;4996871;28;20045;-75
2023/06/06 10:11:26;;;;;;;4.07;3.22;;;;;;;;;;5017879;28;20029;-75
2023/06/06 10:13:54;;;;;;;4.38;3.30;;;;;;;;;;5026275;28;20033;-75
2023/06/06 10:16:20;;;;;;;5.80;3.00;;;;;;;;;;5003435;28;20614;-75
2023/06/06 10:18:46;;;;;;;3.03;2.72;;;;;;;;;;5008019;28;20055;-75
2023/06/06 10:21:16;;;;;;;3.42;3.05;;;;;;;;;;5005172;28;20047;-76
2023/06/06 10:23:42;;;;;;;2.75;2.33;;;;;;;;;;5023101;28;20037;-75
2023/06/06 10:26:31;;;;;;;5.32;3.40;;;;;;;;;;5026396;28;20033;-76
2023/06/06 10:28:59;;;;;;;4.03;3.00;;;;;;;;;;4943453;28;20052;-76
2023/06/06 10:31:29;;;;;;;2.58;2.33;;;;;;;;;;5018579;28;20103;-77
2023/06/06 10:33:58;;;;;;;3.35;2.80;;;;;;;;;;5008888;28;20079;-77
2023/06/06 10:36:23;;;;;;;3.50;2.83;;;;;;;;;;5007950;28;20107;-77
2023/06/06 10:39:18;;;;;;;4.57;2.60;;;;;;;;;;5020017;28;20593;-77
2023/06/06 10:41:57;;;;;;;3.95;2.70;;;;;;;;;;5015891;28;20045;-76
2023/06/06 10:44:35;;;;;;;2.92;2.35;;;;;;;;;;5015018;28;20436;-75
2023/06/06 10:47:30;;;;;;;2.95;2.40;;;;;;;;;;5023766;28;20037;-77
2023/06/06 10:50:07;;;;;;;2.85;2.42;;;;;;;;;;5011909;28;20110;-76
2023/06/06 10:52:52;;;;;;;2.60;2.40;;;;;;;;;;5023871;28;20094;-77
2023/06/06 10:55:23;;;;;;;4.38;2.63;;;;;;;;;;5026108;28;20563;-77
2023/06/06 10:57:53;;;;;;;2.85;2.45;;;;;;;;;;5025424;28;20041;-76
2023/06/06 11:00:22;;;;;;;2.88;2.28;;;;;;;;;;4986170;28;20033;-74
2023/06/06 11:02:47;;;;;;;2.53;2.30;;;;;;;;;;5007685;28;20091;-77
2023/06/06 11:05:13;;;;;;;4.25;2.50;;;;;;;;;;5034379;28;20055;-77
2023/06/06 11:07:39;;;;;;;5.03;2.40;;;;;;;;;;5012618;28;20040;-76
2023/06/06 11:10:05;;;;;;;3.22;2.47;;;;;;;;;;5021430;28;20521;-75
2023/06/06 11:12:32;;;;;;;4.32;2.58;;;;;;;;;;5018030;28;20040;-75
2023/06/06 11:15:07;;;;;;;3.63;2.72;;;;;;;;;;4989551;28;20261;-75
2023/06/06 11:17:55;;;;;;;5.47;3.10;;;;;;;;;;5016627;28;20037;-77
2023/06/06 11:20:21;;;;;;;4.55;2.90;;;;;;;;;;5022847;28;20039;-74
2023/06/06 11:23:02;;;;;;;4.95;3.13;;;;;;;;;;5008868;28;20532;-76
2023/06/06 11:25:28;;;;;;;4.30;3.03;;;;;;;;;;4969920;28;20475;-77
2023/06/06 11:27:55;;;;;;;7.50;3.00;;;;;;;;;;5006359;28;20755;-75
2023/06/06 11:30:20;;;;;;;5.18;2.97;;;;;;;;;;5024353;28;20036;-75
2023/06/06 11:32:46;;;;;;;6.95;3.10;;;;;;;;;;5025000;28;20095;-76
2023/06/06 11:35:17;;;;;;;6.50;3.38;;;;;;;;;;5027135;28;20086;-76
2023/06/06 11:37:42;;;;;;;5.75;3.13;;;;;;;;;;4992730;28;20433;-76
2023/06/06 11:40:08;;;;;;;4.65;3.22;;;;;;;;;;5022812;28;20152;-76
2023/06/06 11:42:34;;;;;;;5.30;3.55;;;;;;;;;;5023841;28;20087;-75
2023/06/06 11:45:00;;;;;;;5.18;3.33;;;;;;;;;;5023895;28;20505;-76
2023/06/06 11:47:32;;;;;;;6.93;3.40;;;;;;;;;;5011752;28;20045;-77
2023/06/06 11:49:57;;;;;;;4.90;3.00;;;;;;;;;;4999699;28;20129;-76
2023/06/06 11:52:23;;;;;;;2.17;1.98;;;;;;;;;;4983390;28;20645;-75
2023/06/06 11:54:53;;;;;;;2.03;1.92;;;;;;;;;;5004584;28;20124;-75
2023/06/06 11:57:19;;;;;;;4.45;2.95;;;;;;;;;;5011546;28;20680;-76
2023/06/06 11:59:54;;;;;;;2.88;2.53;;;;;;;;;;5018182;28;20064;-76
2023/06/06 12:02:19;;;;;;;3.13;2.33;;;;;;;;;;5023440;28;20148;-76
2023/06/06 12:04:48;;;;;;;4.55;2.72;;;;;;;;;;5008089;28;20128;-76
2023/06/06 12:07:13;;;;;;;4.15;2.90;;;;;;;;;;5020155;28;20149;-77
2023/06/06 12:09:39;;;;;;;2.88;2.20;;;;;;;;;;5023837;28;20472;-76
2023/06/06 12:12:05;;;;;;;4.45;2.80;;;;;;;;;;5023475;28;20036;-74
2023/06/06 12:14:32;;;;;;;2.78;1.85;;;;;;;;;;5014281;28;20099;-76
2023/06/06 12:17:10;;;;;;;3.38;2.13;;;;;;;;;;5025069;28;20053;-76
2023/06/06 12:19:36;;;;;;;3.17;1.90;;;;;;;;;;4977353;28;20042;-76
2023/06/06 12:22:02;;;;;;;2.03;1.83;;;;;;;;;;5005765;28;20534;-76
2023/06/06 12:24:30;;;;;;;3.53;2.85;;;;;;;;;;5005264;28;20052;-76
2023/06/06 12:27:01;;;;;;;3.22;2.88;;;;;;;;;;5015800;28;20096;-76
2023/06/06 12:29:30;;;;;;;2.13;1.92;;;;;;;;;;5023672;28;20065;-75
2023/06/06 12:32:15;;;;;;;2.28;2.05;;;;;;;;;;5009635;28;20037;-76
2023/06/06 12:35:05;;;;;;;1.98;1.85;;;;;;;;;;5013095;28;20513;-75
2023/06/06 12:37:38;;;;;;;3.25;2.25;;;;;;;;;;4978163;28;21510;-74
2023/06/06 12:40:23;;;;;;;6.07;3.38;;;;;;;;;;5012770;28;20053;-76
2023/06/06 12:42:59;;;;;;;7.50;2.40;;;;;;;;;;5022236;28;20104;-75
2023/06/06 12:45:26;;;;;;;7.00;2.80;;;;;;;;;;5007030;28;20497;-75
2023/06/06 12:47:53;;;;;;;3.45;2.53;;;;;;;;;;5009486;28;20572;-74
2023/06/06 12:50:20;;;;;;;3.17;1.83;;;;;;;;;;5025020;28;20048;-76
2023/06/06 12:52:46;;;;;;;5.13;2.75;;;;;;;;;;4999884;28;20037;-73
2023/06/06 12:55:12;;;;;;;4.32;2.25;;;;;;;;;;5023746;28;20047;-76
2023/06/06 12:57:37;;;;;;;7.25;2.78;;;;;;;;;;5015745;28;20029;-73
2023/06/06 13:00:07;;;;;;;3.92;2.50;;;;;;;;;;5006845;28;20038;-76
2023/06/06 13:02:33;;;;;;;3.72;2.85;;;;;;;;;;5004296;28;20045;-75
2023/06/06 13:04:58;;;;;;;2.20;2.00;;;;;;;;;;5003149;28;20037;-76
2023/06/06 13:07:24;;;;;;;2.45;2.22;;;;;;;;;;4988653;28;20037;-76
2023/06/06 13:09:50;;;;;;;2.08;1.73;;;;;;;;;;5005181;28;20132;-77
2023/06/06 13:12:15;;;;;;;2.42;2.22;;;;;;;;;;5007325;28;20616;-75
2023/06/06 13:14:41;;;;;;;3.08;2.08;;;;;;;;;;5007964;28;20088;-76
2023/06/06 13:17:06;;;;;;;4.10;2.53;;;;;;;;;;5019811;28;20064;-77
2023/06/06 13:19:32;;;;;;;5.28;3.00;;;;;;;;;;5012122;28;20045;-75
2023/06/06 13:21:57;;;;;;;4.32;2.40;;;;;;;;;;5022727;28;20049;-76
2023/06/06 13:24:23;;;;;;;4.30;2.65;;;;;;;;;;5025751;28;20043;-76
2023/06/06 13:26:48;;;;;;;4.53;3.20;;;;;;;;;;5016101;28;20064;-77
2023/06/06 13:29:14;;;;;;;3.22;2.80;;;;;;;;;;5018954;28;20068;-77
2023/06/06 13:31:42;;;;;;;5.57;3.30;;;;;;;;;;5000063;28;20481;-76
2023/06/06 13:34:10;;;;;;;5.05;3.13;;;;;;;;;;5016648;28;20060;-75
2023/06/06 13:36:36;;;;;;;2.85;2.20;;;;;;;;;;5034813;28;20043;-75
2023/06/06 13:39:02;;;;;;;3.80;2.60;;;;;;;;;;5031539;28;20055;-74
2023/06/06 13:41:28;;;;;;;2.92;2.50;;;;;;;;;;5021576;28;20047;-74
2023/06/06 13:43:54;;;;;;;4.03;2.47;;;;;;;;;;5030267;28;20044;-75
2023/06/06 13:46:20;;;;;;;2.78;2.50;;;;;;;;;;5032680;28;20735;-77
2023/06/06 13:48:48;;;;;;;4.25;2.45;;;;;;;;;;5021816;28;20040;-77
2023/06/06 13:51:14;;;;;;;3.70;2.88;;;;;;;;;;5018389;28;20050;-76
2023/06/06 13:53:39;;;;;;;2.75;2.40;;;;;;;;;;4999115;28;20657;-76
2023/06/06 13:56:04;;;;;;;4.07;2.90;;;;;;;;;;5012491;28;20037;-77
2023/06/06 13:58:37;;;;;;;5.03;3.22;;;;;;;;;;5022323;28;20151;-76
2023/06/06 14:01:05;;;;;;;7.00;3.35;;;;;;;;;;4998991;28;20029;-76
2023/06/06 14:03:32;;;;;;;4.25;2.70;;;;;;;;;;5027772;28;20056;-76
2023/06/06 14:05:58;;;;;;;2.47;2.13;;;;;;;;;;5011693;28;20033;-75
2023/06/06 14:08:24;;;;;;;2.80;2.55;;;;;;;;;;5027984;28;20037;-75
2023/06/06 14:10:49;;;;;;;2.63;2.40;;;;;;;;;;5025306;28;20036;-76
2023/06/06 14:13:15;;;;;;;2.38;2.20;;;;;;;;;;4999021;28;20537;-74
2023/06/06 14:15:40;;;;;;;4.68;3.05;;;;;;;;;;5015505;28;20072;-76
2023/06/06 14:18:05;;;;;;;4.45;2.60;;;;;;;;;;5025616;28;20043;-76
2023/06/06 14:20:47;;;;;;;3.80;3.00;;;;;;;;;;5005674;28;20041;-75
2023/06/06 14:23:13;;;;;;;2.65;2.45;;;;;;;;;;4999862;28;20045;-77
2023/06/06 14:25:38;;;;;;;4.60;3.72;;;;;;;;;;5028914;28;20127;-76
2023/06/06 14:28:04;;;;;;;3.03;2.72;;;;;;;;;;5007394;28;20041;-77
2023/06/06 14:30:29;;;;;;;3.08;2.78;;;;;;;;;;5027608;28;20048;-76
2023/06/06 14:32:55;;;;;;;2.97;2.60;;;;;;;;;;5029052;28;20037;-76
2023/06/06 14:35:21;;;;;;;4.50;2.97;;;;;;;;;;5018123;28;20539;-76
2023/06/06 14:37:46;;;;;;;3.47;3.17;;;;;;;;;;5028417;28;20144;-77
2023/06/06 14:40:12;;;;;;;4.72;3.35;;;;;;;;;;5022625;28;20037;-76
2023/06/06 14:42:37;;;;;;;6.00;3.75;;;;;;;;;;5014180;28;20110;-74
2023/06/06 14:45:03;;;;;;;5.05;3.58;;;;;;;;;;5019147;28;20041;-77